EZY187 LPPT-EGKK
Flight info
| Callsign | EZY187 |
|---|---|
| Flight time | 2h 10m |
| Altitude | 36000 |
| Route | IXIDA DCT RIVRO DCT TOSDI N745 ZMR N873 DELOG DCT ERCOZ DCT BADUR DCT FEJAC DCT JSY/N0444F340 DCT REVTU UP88 VASUX |
| Aircraft | A320/M-SDE3FGHIRWY/LB1 |
Departure
| Time | 2026-05-07 17:50 |
|---|---|
| Airport | Lisbon Humberto Delgado Airport (LPPT) |
Arrival
| Time | 2026-05-07 20:00 |
|---|---|
| Airport | London Gatwick Airport (EGKK) |
| Time | Latitude | Longitude | Altitude | Speed | Heading |
|---|---|---|---|---|---|
| 2026-05-07 17:23 | 38.77373 | -9.13142 | 347 ft | 0 kts | 78° |
| 2026-05-07 17:39 | 38.77372 | -9.13149 | 347 ft | 2 kts | 78° |
| 2026-05-07 17:39 | 38.77369 | -9.13171 | 354 ft | 2 kts | 78° |
| 2026-05-07 17:39 | 38.77365 | -9.13193 | 354 ft | 2 kts | 78° |
| 2026-05-07 17:39 | 38.77361 | -9.13214 | 356 ft | 2 kts | 78° |
| 2026-05-07 17:40 | 38.77358 | -9.13236 | 352 ft | 2 kts | 82° |
| 2026-05-07 17:40 | 38.77361 | -9.13255 | 354 ft | 2 kts | 139° |
| 2026-05-07 17:40 | 38.77374 | -9.13269 | 353 ft | 3 kts | 158° |
| 2026-05-07 17:40 | 38.77375 | -9.13270 | 353 ft | 0 kts | 158° |
| 2026-05-07 17:41 | 38.77365 | -9.13266 | 355 ft | 5 kts | 171° |
| 2026-05-07 17:42 | 38.77323 | -9.13335 | 349 ft | 14 kts | 257° |
| 2026-05-07 17:42 | 38.77301 | -9.13467 | 350 ft | 16 kts | 258° |
| 2026-05-07 17:42 | 38.77279 | -9.13609 | 347 ft | 17 kts | 258° |
| 2026-05-07 17:42 | 38.77254 | -9.13759 | 348 ft | 18 kts | 258° |
| 2026-05-07 17:43 | 38.77202 | -9.13862 | 352 ft | 14 kts | 207° |
| 2026-05-07 17:43 | 38.77114 | -9.13909 | 355 ft | 13 kts | 202° |
| 2026-05-07 17:43 | 38.77032 | -9.13950 | 354 ft | 12 kts | 201° |
| 2026-05-07 17:43 | 38.76962 | -9.13987 | 349 ft | 10 kts | 203° |
| 2026-05-07 17:44 | 38.76896 | -9.14023 | 349 ft | 14 kts | 202° |
| 2026-05-07 17:44 | 38.76782 | -9.14084 | 351 ft | 19 kts | 202° |
| 2026-05-07 17:44 | 38.76670 | -9.14145 | 352 ft | 16 kts | 204° |
| 2026-05-07 17:44 | 38.76640 | -9.14162 | 348 ft | 1 kts | 204° |
| 2026-05-07 17:45 | 38.76635 | -9.14165 | 347 ft | 0 kts | 204° |
| 2026-05-07 17:45 | 38.76593 | -9.14231 | 346 ft | 15 kts | 277° |
| 2026-05-07 17:45 | 38.76606 | -9.14272 | 344 ft | 1 kts | 292° |
| 2026-05-07 17:46 | 38.76607 | -9.14276 | 350 ft | 0 kts | 292° |
| 2026-05-07 17:48 | 38.76607 | -9.14277 | 350 ft | 1 kts | 292° |
| 2026-05-07 17:48 | 38.76627 | -9.14340 | 338 ft | 15 kts | 292° |
| 2026-05-07 17:48 | 38.76682 | -9.14369 | 335 ft | 6 kts | 22° |
| 2026-05-07 17:49 | 38.76683 | -9.14369 | 335 ft | 0 kts | 22° |
| 2026-05-07 17:49 | 38.76689 | -9.14365 | 337 ft | 7 kts | 22° |
| 2026-05-07 17:49 | 38.76963 | -9.14222 | 349 ft | 78 kts | 22° |
| 2026-05-07 17:49 | 38.77651 | -9.13853 | 354 ft | 135 kts | 22° |
| 2026-05-07 17:50 | 38.78634 | -9.13303 | 423 ft | 168 kts | 21° |
| 2026-05-07 17:50 | 38.79682 | -9.12705 | 1108 ft | 164 kts | 19° |
| 2026-05-07 17:50 | 38.80743 | -9.12142 | 1714 ft | 168 kts | 15° |
| 2026-05-07 17:50 | 38.81871 | -9.11469 | 1967 ft | 191 kts | 28° |
| 2026-05-07 17:51 | 38.83086 | -9.10553 | 2228 ft | 214 kts | 27° |
| 2026-05-07 17:51 | 38.84438 | -9.09523 | 2541 ft | 238 kts | 28° |
| 2026-05-07 17:51 | 38.85926 | -9.08377 | 2970 ft | 258 kts | 26° |
| 2026-05-07 17:51 | 38.87492 | -9.07163 | 3633 ft | 267 kts | 30° |
| 2026-05-07 17:52 | 38.89099 | -9.05908 | 4409 ft | 273 kts | 31° |
| 2026-05-07 17:52 | 38.90595 | -9.04381 | 5085 ft | 283 kts | 43° |
| 2026-05-07 17:52 | 38.92062 | -9.02667 | 5890 ft | 286 kts | 45° |
| 2026-05-07 17:52 | 38.93543 | -9.00930 | 6689 ft | 290 kts | 45° |
| 2026-05-07 17:53 | 38.95039 | -8.99176 | 7467 ft | 293 kts | 45° |
| 2026-05-07 17:53 | 38.96555 | -8.97401 | 8245 ft | 296 kts | 44° |
| 2026-05-07 17:53 | 38.98084 | -8.95608 | 9006 ft | 300 kts | 44° |
| 2026-05-07 17:53 | 38.99638 | -8.93788 | 9768 ft | 304 kts | 44° |
| 2026-05-07 17:54 | 39.01211 | -8.91952 | 10455 ft | 307 kts | 44° |
| 2026-05-07 17:54 | 39.02817 | -8.90079 | 10931 ft | 320 kts | 44° |
| 2026-05-07 17:54 | 39.04523 | -8.88084 | 11091 ft | 343 kts | 44° |
| 2026-05-07 17:54 | 39.06347 | -8.85947 | 11238 ft | 365 kts | 44° |
| 2026-05-07 17:55 | 39.08233 | -8.83736 | 11641 ft | 376 kts | 44° |
| 2026-05-07 17:55 | 39.10179 | -8.81458 | 12267 ft | 380 kts | 44° |
| 2026-05-07 17:55 | 39.12143 | -8.79154 | 12901 ft | 384 kts | 43° |
| 2026-05-07 17:55 | 39.14125 | -8.76826 | 13556 ft | 387 kts | 44° |
| 2026-05-07 17:56 | 39.16128 | -8.74473 | 14123 ft | 391 kts | 44° |
| 2026-05-07 17:56 | 39.18001 | -8.71931 | 14687 ft | 393 kts | 50° |
| 2026-05-07 17:56 | 39.19819 | -8.69266 | 15166 ft | 398 kts | 50° |
| 2026-05-07 17:56 | 39.21656 | -8.66572 | 15711 ft | 402 kts | 50° |
| 2026-05-07 17:57 | 39.23513 | -8.63850 | 16233 ft | 406 kts | 50° |
| 2026-05-07 17:57 | 39.24748 | -8.62042 | 16618 ft | 407 kts | 50° |
| 2026-05-07 17:57 | 39.27250 | -8.58380 | 17319 ft | 413 kts | 49° |
| 2026-05-07 17:57 | 39.29151 | -8.55591 | 17875 ft | 416 kts | 49° |
| 2026-05-07 17:58 | 39.31069 | -8.52765 | 18362 ft | 420 kts | 49° |
| 2026-05-07 17:58 | 39.32999 | -8.49920 | 18834 ft | 423 kts | 49° |
| 2026-05-07 17:58 | 39.34947 | -8.47048 | 19280 ft | 427 kts | 49° |
| 2026-05-07 17:58 | 39.36912 | -8.44148 | 19739 ft | 430 kts | 49° |
| 2026-05-07 17:59 | 39.38915 | -8.41253 | 20202 ft | 433 kts | 47° |
| 2026-05-07 17:59 | 39.41009 | -8.38435 | 20648 ft | 437 kts | 45° |
| 2026-05-07 17:59 | 39.43179 | -8.35670 | 21057 ft | 440 kts | 44° |
| 2026-05-07 17:59 | 39.45402 | -8.32911 | 21442 ft | 444 kts | 43° |
| 2026-05-07 18:00 | 39.47617 | -8.30171 | 21807 ft | 449 kts | 43° |
| 2026-05-07 18:00 | 39.49871 | -8.27352 | 22195 ft | 452 kts | 44° |
| 2026-05-07 18:00 | 39.52124 | -8.24491 | 22597 ft | 456 kts | 44° |
| 2026-05-07 18:00 | 39.54380 | -8.21591 | 23032 ft | 458 kts | 44° |
| 2026-05-07 18:01 | 39.56636 | -8.18666 | 23414 ft | 461 kts | 44° |
| 2026-05-07 18:01 | 39.58907 | -8.15715 | 23718 ft | 464 kts | 44° |
| 2026-05-07 18:01 | 39.61189 | -8.12746 | 24032 ft | 466 kts | 44° |
| 2026-05-07 18:01 | 39.63484 | -8.09764 | 24343 ft | 468 kts | 44° |
| 2026-05-07 18:02 | 39.68114 | -8.03765 | 24932 ft | 473 kts | 44° |
| 2026-05-07 18:02 | 39.70444 | -8.00743 | 25231 ft | 475 kts | 44° |
| 2026-05-07 18:02 | 39.72754 | -7.97743 | 25526 ft | 477 kts | 44° |
| 2026-05-07 18:03 | 39.75100 | -7.94696 | 25827 ft | 478 kts | 44° |
| 2026-05-07 18:03 | 39.77430 | -7.91661 | 26163 ft | 479 kts | 44° |
| 2026-05-07 18:03 | 39.79775 | -7.88603 | 26493 ft | 477 kts | 44° |
| 2026-05-07 18:03 | 39.82075 | -7.85599 | 26621 ft | 457 kts | 43° |
| 2026-05-07 18:04 | 39.84308 | -7.82687 | 26732 ft | 457 kts | 43° |
| 2026-05-07 18:04 | 39.86573 | -7.79738 | 26878 ft | 464 kts | 43° |
| 2026-05-07 18:04 | 39.88868 | -7.76746 | 26999 ft | 470 kts | 43° |
| 2026-05-07 18:04 | 39.91190 | -7.73708 | 27129 ft | 476 kts | 43° |
| 2026-05-07 18:05 | 39.93539 | -7.70629 | 27260 ft | 482 kts | 43° |
| 2026-05-07 18:05 | 39.95911 | -7.67514 | 27443 ft | 485 kts | 44° |
| 2026-05-07 18:05 | 39.98260 | -7.64419 | 27646 ft | 488 kts | 44° |
| 2026-05-07 18:05 | 40.00648 | -7.61268 | 27895 ft | 490 kts | 43° |
| 2026-05-07 18:06 | 40.03048 | -7.58106 | 28133 ft | 491 kts | 43° |
| 2026-05-07 18:06 | 40.05456 | -7.54934 | 28358 ft | 493 kts | 43° |
| 2026-05-07 18:06 | 40.07876 | -7.51753 | 28563 ft | 494 kts | 42° |
| 2026-05-07 18:06 | 40.10300 | -7.48563 | 28761 ft | 496 kts | 43° |
| 2026-05-07 18:07 | 40.12728 | -7.45359 | 29014 ft | 496 kts | 43° |
| 2026-05-07 18:07 | 40.15155 | -7.42149 | 29285 ft | 496 kts | 43° |
| 2026-05-07 18:07 | 40.17578 | -7.38939 | 29560 ft | 496 kts | 42° |
| 2026-05-07 18:07 | 40.20003 | -7.35721 | 29831 ft | 496 kts | 42° |
| 2026-05-07 18:08 | 40.22391 | -7.32550 | 30074 ft | 496 kts | 42° |
| 2026-05-07 18:08 | 40.24843 | -7.29285 | 30317 ft | 496 kts | 42° |
| 2026-05-07 18:08 | 40.27226 | -7.26106 | 30551 ft | 496 kts | 42° |
| 2026-05-07 18:08 | 40.29642 | -7.22886 | 30781 ft | 495 kts | 42° |
| 2026-05-07 18:09 | 40.32053 | -7.19670 | 31037 ft | 495 kts | 41° |
| 2026-05-07 18:09 | 40.34464 | -7.16453 | 31288 ft | 494 kts | 41° |
| 2026-05-07 18:09 | 40.36869 | -7.13244 | 31530 ft | 494 kts | 41° |
| 2026-05-07 18:09 | 40.39274 | -7.10030 | 31784 ft | 493 kts | 41° |
| 2026-05-07 18:10 | 40.41672 | -7.06818 | 32031 ft | 492 kts | 41° |
| 2026-05-07 18:10 | 40.44068 | -7.03607 | 32289 ft | 492 kts | 41° |
| 2026-05-07 18:10 | 40.46460 | -7.00397 | 32541 ft | 491 kts | 41° |
| 2026-05-07 18:10 | 40.48844 | -6.97190 | 32785 ft | 491 kts | 41° |
| 2026-05-07 18:11 | 40.51200 | -6.94021 | 33029 ft | 491 kts | 41° |
| 2026-05-07 18:11 | 40.52810 | -6.91855 | 33195 ft | 490 kts | 41° |
| 2026-05-07 18:11 | 40.55962 | -6.87612 | 33520 ft | 490 kts | 41° |
| 2026-05-07 18:11 | 40.58340 | -6.84404 | 33757 ft | 489 kts | 41° |
| 2026-05-07 18:12 | 40.60710 | -6.81199 | 33988 ft | 488 kts | 41° |
| 2026-05-07 18:12 | 40.63073 | -6.77998 | 34202 ft | 488 kts | 41° |
| 2026-05-07 18:12 | 40.65435 | -6.74799 | 34412 ft | 487 kts | 41° |
| 2026-05-07 18:12 | 40.67794 | -6.71602 | 34603 ft | 487 kts | 41° |
| 2026-05-07 18:13 | 40.70155 | -6.68400 | 34795 ft | 487 kts | 41° |
| 2026-05-07 18:13 | 40.72514 | -6.65197 | 34988 ft | 487 kts | 41° |
| 2026-05-07 18:13 | 40.74836 | -6.62038 | 35183 ft | 486 kts | 41° |
| 2026-05-07 18:13 | 40.77187 | -6.58838 | 35364 ft | 485 kts | 41° |
| 2026-05-07 18:14 | 40.79531 | -6.55642 | 35536 ft | 485 kts | 41° |
| 2026-05-07 18:14 | 40.81880 | -6.52433 | 35710 ft | 485 kts | 41° |
| 2026-05-07 18:14 | 40.84221 | -6.49234 | 35848 ft | 485 kts | 41° |
| 2026-05-07 18:15 | 40.88912 | -6.42817 | 35867 ft | 485 kts | 40° |
| 2026-05-07 18:15 | 40.93595 | -6.36404 | 35877 ft | 484 kts | 40° |
| 2026-05-07 18:16 | 40.98239 | -6.30029 | 35869 ft | 484 kts | 41° |
| 2026-05-07 18:16 | 41.03035 | -6.23827 | 35876 ft | 480 kts | 37° |
| 2026-05-07 18:17 | 41.08046 | -6.17999 | 35876 ft | 479 kts | 35° |
| 2026-05-07 18:17 | 41.13082 | -6.12201 | 35881 ft | 480 kts | 36° |
| 2026-05-07 18:18 | 41.18023 | -6.06319 | 35885 ft | 480 kts | 36° |
| 2026-05-07 18:18 | 41.22957 | -6.00342 | 35908 ft | 480 kts | 36° |
| 2026-05-07 18:19 | 41.27901 | -5.94378 | 35893 ft | 480 kts | 36° |
| 2026-05-07 18:19 | 41.32847 | -5.88420 | 35896 ft | 480 kts | 36° |
| 2026-05-07 18:20 | 41.37758 | -5.82501 | 35883 ft | 479 kts | 36° |
| 2026-05-07 18:20 | 41.42693 | -5.76532 | 35906 ft | 479 kts | 36° |
| 2026-05-07 18:21 | 41.47615 | -5.70545 | 35912 ft | 479 kts | 36° |
| 2026-05-07 18:21 | 41.52663 | -5.64816 | 35899 ft | 471 kts | 26° |
| 2026-05-07 18:22 | 41.58351 | -5.60968 | 35903 ft | 458 kts | 15° |
| 2026-05-07 18:22 | 41.64236 | -5.57688 | 35918 ft | 459 kts | 15° |
| 2026-05-07 18:23 | 41.70114 | -5.54360 | 35914 ft | 458 kts | 16° |
| 2026-05-07 18:23 | 41.75975 | -5.51025 | 35911 ft | 458 kts | 16° |
| 2026-05-07 18:24 | 41.81800 | -5.47712 | 35911 ft | 457 kts | 15° |
| 2026-05-07 18:24 | 41.87653 | -5.44389 | 35922 ft | 457 kts | 16° |
| 2026-05-07 18:25 | 41.93500 | -5.41068 | 35919 ft | 456 kts | 16° |
| 2026-05-07 18:25 | 41.99341 | -5.37743 | 35912 ft | 456 kts | 16° |
| 2026-05-07 18:26 | 42.05133 | -5.34432 | 35900 ft | 455 kts | 16° |
| 2026-05-07 18:26 | 42.10956 | -5.31096 | 35937 ft | 455 kts | 17° |
| 2026-05-07 18:27 | 42.16775 | -5.27763 | 35923 ft | 454 kts | 17° |
| 2026-05-07 18:27 | 42.22582 | -5.24425 | 35914 ft | 454 kts | 17° |
| 2026-05-07 18:28 | 42.28348 | -5.21093 | 35905 ft | 454 kts | 17° |
| 2026-05-07 18:28 | 42.34150 | -5.17747 | 35914 ft | 454 kts | 17° |
| 2026-05-07 18:29 | 42.39957 | -5.14400 | 35908 ft | 454 kts | 17° |
| 2026-05-07 18:29 | 42.45760 | -5.11033 | 35904 ft | 454 kts | 17° |
| 2026-05-07 18:30 | 42.51528 | -5.07678 | 35922 ft | 454 kts | 18° |
| 2026-05-07 18:30 | 42.57336 | -5.04295 | 35917 ft | 454 kts | 18° |
| 2026-05-07 18:31 | 42.63146 | -5.00916 | 35922 ft | 454 kts | 18° |
| 2026-05-07 18:31 | 42.68951 | -4.97529 | 35916 ft | 454 kts | 18° |
| 2026-05-07 18:32 | 42.74715 | -4.94150 | 35932 ft | 454 kts | 18° |
| 2026-05-07 18:32 | 42.80522 | -4.90748 | 35916 ft | 454 kts | 18° |
| 2026-05-07 18:33 | 42.86326 | -4.87334 | 35923 ft | 455 kts | 18° |
| 2026-05-07 18:33 | 42.92133 | -4.83909 | 35933 ft | 455 kts | 18° |
| 2026-05-07 18:34 | 42.97904 | -4.80511 | 35921 ft | 455 kts | 18° |
| 2026-05-07 18:34 | 43.03710 | -4.77080 | 35919 ft | 455 kts | 19° |
| 2026-05-07 18:35 | 43.09515 | -4.73634 | 35913 ft | 455 kts | 19° |
| 2026-05-07 18:35 | 43.15320 | -4.70180 | 35932 ft | 455 kts | 19° |
| 2026-05-07 18:36 | 43.21079 | -4.66734 | 35919 ft | 454 kts | 19° |
| 2026-05-07 18:36 | 43.26877 | -4.63270 | 35909 ft | 455 kts | 19° |
| 2026-05-07 18:37 | 43.32683 | -4.59812 | 35905 ft | 455 kts | 19° |
| 2026-05-07 18:37 | 43.38486 | -4.56351 | 35910 ft | 455 kts | 19° |
| 2026-05-07 18:38 | 43.44243 | -4.52892 | 35908 ft | 455 kts | 19° |
| 2026-05-07 18:38 | 43.50046 | -4.49401 | 35896 ft | 455 kts | 19° |
| 2026-05-07 18:39 | 43.55848 | -4.45908 | 35899 ft | 456 kts | 20° |
| 2026-05-07 18:39 | 43.61658 | -4.42393 | 35894 ft | 456 kts | 20° |
| 2026-05-07 18:40 | 43.67474 | -4.38874 | 35892 ft | 457 kts | 20° |
| 2026-05-07 18:40 | 43.73257 | -4.35366 | 35886 ft | 457 kts | 20° |
| 2026-05-07 18:41 | 43.79082 | -4.31830 | 35896 ft | 457 kts | 20° |
| 2026-05-07 18:41 | 43.84911 | -4.28282 | 35900 ft | 458 kts | 20° |
| 2026-05-07 18:42 | 43.89757 | -4.25321 | 35901 ft | 458 kts | 20° |
| 2026-05-07 18:42 | 43.96527 | -4.21171 | 35921 ft | 458 kts | 20° |
| 2026-05-07 18:43 | 44.02363 | -4.17592 | 35921 ft | 459 kts | 20° |
| 2026-05-07 18:43 | 44.07214 | -4.14618 | 35903 ft | 459 kts | 20° |
| 2026-05-07 18:44 | 44.13994 | -4.10444 | 35901 ft | 458 kts | 20° |
| 2026-05-07 18:44 | 44.19823 | -4.06843 | 35919 ft | 458 kts | 20° |
| 2026-05-07 18:45 | 44.25654 | -4.03233 | 35918 ft | 458 kts | 20° |
| 2026-05-07 18:45 | 44.30511 | -4.00271 | 35917 ft | 457 kts | 17° |
| 2026-05-07 18:46 | 44.36644 | -3.98406 | 35925 ft | 449 kts | 0° |
| 2026-05-07 18:46 | 44.43883 | -3.97776 | 35923 ft | 449 kts | 0° |
| 2026-05-07 18:47 | 44.49064 | -3.97301 | 35924 ft | 449 kts | 0° |
| 2026-05-07 18:47 | 44.55299 | -3.96735 | 35940 ft | 449 kts | 0° |
| 2026-05-07 18:48 | 44.61531 | -3.96173 | 35932 ft | 449 kts | 0° |
| 2026-05-07 18:48 | 44.67761 | -3.95614 | 35931 ft | 449 kts | 0° |
| 2026-05-07 18:49 | 44.73992 | -3.95054 | 35930 ft | 449 kts | 0° |
| 2026-05-07 18:49 | 44.80182 | -3.94488 | 35930 ft | 449 kts | 0° |
| 2026-05-07 18:50 | 44.86415 | -3.93922 | 35930 ft | 449 kts | 0° |
| 2026-05-07 18:50 | 44.92653 | -3.93363 | 35935 ft | 449 kts | 0° |
| 2026-05-07 18:51 | 44.98888 | -3.92797 | 35940 ft | 449 kts | 0° |
| 2026-05-07 18:51 | 45.05125 | -3.92223 | 35943 ft | 449 kts | 0° |
| 2026-05-07 18:52 | 45.11314 | -3.91643 | 35942 ft | 449 kts | 0° |
| 2026-05-07 18:52 | 45.17544 | -3.91074 | 35952 ft | 449 kts | 0° |
| 2026-05-07 18:53 | 45.23780 | -3.90502 | 35952 ft | 449 kts | 0° |
| 2026-05-07 18:53 | 45.30016 | -3.89932 | 35951 ft | 449 kts | 1° |
| 2026-05-07 18:54 | 45.36210 | -3.89347 | 35963 ft | 449 kts | 1° |
| 2026-05-07 18:54 | 45.42450 | -3.88768 | 35964 ft | 449 kts | 1° |
| 2026-05-07 18:55 | 45.48689 | -3.88187 | 35952 ft | 450 kts | 1° |
| 2026-05-07 18:55 | 45.54901 | -3.87611 | 35952 ft | 450 kts | 1° |
| 2026-05-07 18:56 | 45.61159 | -3.87019 | 35948 ft | 451 kts | 1° |
| 2026-05-07 18:56 | 45.67417 | -3.86428 | 35949 ft | 451 kts | 1° |
| 2026-05-07 18:57 | 45.73678 | -3.85848 | 35962 ft | 451 kts | 1° |
| 2026-05-07 18:57 | 45.79947 | -3.85273 | 35966 ft | 451 kts | 1° |
| 2026-05-07 18:58 | 45.86177 | -3.84678 | 35966 ft | 452 kts | 1° |
| 2026-05-07 18:58 | 45.92457 | -3.84082 | 35983 ft | 452 kts | 1° |
| 2026-05-07 18:59 | 45.98739 | -3.83491 | 35983 ft | 452 kts | 1° |
| 2026-05-07 18:59 | 46.05019 | -3.82899 | 35986 ft | 452 kts | 1° |
| 2026-05-07 19:00 | 46.11260 | -3.82298 | 35988 ft | 452 kts | 1° |
| 2026-05-07 19:00 | 46.17537 | -3.81693 | 35986 ft | 452 kts | 1° |
| 2026-05-07 19:01 | 46.23810 | -3.81095 | 35985 ft | 452 kts | 1° |
| 2026-05-07 19:01 | 46.30080 | -3.80500 | 35983 ft | 452 kts | 1° |
| 2026-05-07 19:02 | 46.36361 | -3.79898 | 35993 ft | 452 kts | 1° |
| 2026-05-07 19:02 | 46.42596 | -3.79301 | 35991 ft | 452 kts | 1° |
| 2026-05-07 19:03 | 46.48873 | -3.78695 | 35988 ft | 452 kts | 1° |
| 2026-05-07 19:03 | 46.55154 | -3.78085 | 35993 ft | 452 kts | 1° |
| 2026-05-07 19:04 | 46.61436 | -3.77479 | 35993 ft | 452 kts | 1° |
| 2026-05-07 19:04 | 46.67671 | -3.76870 | 35990 ft | 453 kts | 1° |
| 2026-05-07 19:05 | 46.73955 | -3.76240 | 35989 ft | 453 kts | 1° |
| 2026-05-07 19:05 | 46.80242 | -3.75628 | 35991 ft | 453 kts | 1° |
| 2026-05-07 19:06 | 46.86532 | -3.75026 | 35999 ft | 453 kts | 1° |
| 2026-05-07 19:06 | 46.95927 | -3.74104 | 36006 ft | 454 kts | 1° |
| 2026-05-07 19:07 | 47.02226 | -3.73477 | 35999 ft | 454 kts | 1° |
| 2026-05-07 19:07 | 47.08533 | -3.72865 | 35998 ft | 454 kts | 1° |
| 2026-05-07 19:08 | 47.14798 | -3.72250 | 36004 ft | 454 kts | 1° |
| 2026-05-07 19:08 | 47.21109 | -3.71621 | 36002 ft | 455 kts | 1° |
| 2026-05-07 19:09 | 47.27430 | -3.71001 | 35990 ft | 456 kts | 1° |
| 2026-05-07 19:09 | 47.33761 | -3.70368 | 35995 ft | 456 kts | 1° |
| 2026-05-07 19:10 | 47.40062 | -3.69735 | 35985 ft | 457 kts | 1° |
| 2026-05-07 19:10 | 47.46410 | -3.69091 | 35987 ft | 457 kts | 1° |
| 2026-05-07 19:11 | 47.52765 | -3.68442 | 35990 ft | 458 kts | 1° |
| 2026-05-07 19:11 | 47.59121 | -3.67804 | 35993 ft | 458 kts | 1° |
| 2026-05-07 19:12 | 47.65485 | -3.67166 | 35993 ft | 459 kts | 1° |
| 2026-05-07 19:12 | 47.71812 | -3.66534 | 35994 ft | 459 kts | 1° |
| 2026-05-07 19:13 | 47.78192 | -3.65894 | 36004 ft | 460 kts | 1° |
| 2026-05-07 19:13 | 47.84572 | -3.65238 | 35988 ft | 460 kts | 1° |
| 2026-05-07 19:14 | 47.90965 | -3.64583 | 35993 ft | 460 kts | 1° |
| 2026-05-07 19:14 | 47.97358 | -3.63938 | 35999 ft | 461 kts | 1° |
| 2026-05-07 19:15 | 48.03711 | -3.63297 | 35997 ft | 461 kts | 1° |
| 2026-05-07 19:15 | 48.10116 | -3.62642 | 36000 ft | 462 kts | 1° |
| 2026-05-07 19:16 | 48.16524 | -3.61979 | 35998 ft | 462 kts | 1° |
| 2026-05-07 19:16 | 48.22938 | -3.61316 | 36001 ft | 462 kts | 1° |
| 2026-05-07 19:17 | 48.29317 | -3.60064 | 35993 ft | 466 kts | 14° |
| 2026-05-07 19:17 | 48.35129 | -3.55903 | 35996 ft | 470 kts | 35° |
| 2026-05-07 19:18 | 48.39824 | -3.49068 | 36005 ft | 472 kts | 48° |
| 2026-05-07 19:18 | 48.44168 | -3.41637 | 35989 ft | 473 kts | 48° |
| 2026-05-07 19:19 | 48.48514 | -3.34203 | 35994 ft | 473 kts | 48° |
| 2026-05-07 19:19 | 48.52823 | -3.26789 | 35992 ft | 473 kts | 49° |
| 2026-05-07 19:20 | 48.57159 | -3.19303 | 36000 ft | 474 kts | 49° |
| 2026-05-07 19:20 | 48.61488 | -3.11798 | 36022 ft | 474 kts | 49° |
| 2026-05-07 19:21 | 48.65817 | -3.04279 | 36017 ft | 474 kts | 49° |
| 2026-05-07 19:21 | 48.69878 | -2.96526 | 36006 ft | 473 kts | 60° |
| 2026-05-07 19:22 | 48.72408 | -2.87391 | 36009 ft | 471 kts | 77° |
| 2026-05-07 19:22 | 48.74037 | -2.77786 | 36010 ft | 471 kts | 77° |
| 2026-05-07 19:23 | 48.75677 | -2.68174 | 36009 ft | 471 kts | 77° |
| 2026-05-07 19:23 | 48.78163 | -2.59003 | 36002 ft | 473 kts | 58° |
| 2026-05-07 19:24 | 48.82387 | -2.51509 | 36002 ft | 472 kts | 39° |
| 2026-05-07 19:24 | 48.87585 | -2.45425 | 36005 ft | 472 kts | 37° |
| 2026-05-07 19:25 | 48.92788 | -2.39314 | 36008 ft | 473 kts | 37° |
| 2026-05-07 19:25 | 48.97984 | -2.33189 | 36016 ft | 473 kts | 37° |
| 2026-05-07 19:26 | 49.03189 | -2.27051 | 36025 ft | 473 kts | 37° |
| 2026-05-07 19:26 | 49.08358 | -2.20948 | 36040 ft | 473 kts | 37° |
| 2026-05-07 19:27 | 49.13556 | -2.14802 | 36038 ft | 473 kts | 37° |
| 2026-05-07 19:27 | 49.18747 | -2.08629 | 36041 ft | 473 kts | 37° |
| 2026-05-07 19:28 | 49.24126 | -2.02890 | 36017 ft | 471 kts | 27° |
| 2026-05-07 19:28 | 49.29863 | -1.98061 | 36028 ft | 470 kts | 28° |
| 2026-05-07 19:29 | 49.35550 | -1.93240 | 36021 ft | 470 kts | 28° |
| 2026-05-07 19:29 | 49.41275 | -1.88365 | 36026 ft | 470 kts | 28° |
| 2026-05-07 19:30 | 49.46994 | -1.83472 | 36025 ft | 470 kts | 28° |
| 2026-05-07 19:30 | 49.52709 | -1.78565 | 36034 ft | 471 kts | 28° |
| 2026-05-07 19:31 | 49.58396 | -1.73697 | 36035 ft | 471 kts | 27° |
| 2026-05-07 19:31 | 49.64453 | -1.69957 | 36035 ft | 469 kts | 18° |
| 2026-05-07 19:32 | 49.70608 | -1.66574 | 36036 ft | 469 kts | 18° |
| 2026-05-07 19:32 | 49.76756 | -1.63157 | 36042 ft | 470 kts | 18° |
| 2026-05-07 19:33 | 49.82911 | -1.59742 | 36040 ft | 470 kts | 18° |
| 2026-05-07 19:33 | 49.89019 | -1.56348 | 36053 ft | 469 kts | 18° |
| 2026-05-07 19:34 | 49.95155 | -1.52920 | 35343 ft | 469 kts | 19° |
| 2026-05-07 19:34 | 49.98248 | -1.51189 | 33757 ft | 476 kts | 19° |
| 2026-05-07 19:34 | 50.01382 | -1.49451 | 32008 ft | 480 kts | 18° |
| 2026-05-07 19:35 | 50.04558 | -1.47803 | 30304 ft | 482 kts | 17° |
| 2026-05-07 19:35 | 50.07770 | -1.46241 | 28324 ft | 485 kts | 16° |
| 2026-05-07 19:35 | 50.10973 | -1.44739 | 27203 ft | 473 kts | 15° |
| 2026-05-07 19:35 | 50.14052 | -1.43296 | 26960 ft | 455 kts | 15° |
| 2026-05-07 19:36 | 50.17059 | -1.41867 | 26289 ft | 451 kts | 16° |
| 2026-05-07 19:36 | 50.20043 | -1.40428 | 25630 ft | 448 kts | 16° |
| 2026-05-07 19:36 | 50.22970 | -1.38995 | 24988 ft | 445 kts | 16° |
| 2026-05-07 19:36 | 50.25912 | -1.37545 | 24324 ft | 442 kts | 16° |
| 2026-05-07 19:37 | 50.28839 | -1.36097 | 23692 ft | 440 kts | 16° |
| 2026-05-07 19:37 | 50.31747 | -1.34651 | 22987 ft | 437 kts | 16° |
| 2026-05-07 19:37 | 50.34628 | -1.33216 | 22400 ft | 432 kts | 16° |
| 2026-05-07 19:37 | 50.37475 | -1.31799 | 21814 ft | 427 kts | 16° |
| 2026-05-07 19:38 | 50.40293 | -1.30398 | 21266 ft | 423 kts | 16° |
| 2026-05-07 19:38 | 50.43087 | -1.29013 | 20727 ft | 419 kts | 16° |
| 2026-05-07 19:38 | 50.45857 | -1.27642 | 20213 ft | 415 kts | 16° |
| 2026-05-07 19:38 | 50.48577 | -1.26173 | 19702 ft | 412 kts | 22° |
| 2026-05-07 19:39 | 50.51110 | -1.24095 | 19215 ft | 410 kts | 32° |
| 2026-05-07 19:39 | 50.53348 | -1.21454 | 18732 ft | 407 kts | 40° |
| 2026-05-07 19:39 | 50.55507 | -1.18600 | 18237 ft | 404 kts | 39° |
| 2026-05-07 19:39 | 50.57655 | -1.15767 | 17716 ft | 401 kts | 39° |
| 2026-05-07 19:40 | 50.59777 | -1.12969 | 17228 ft | 396 kts | 39° |
| 2026-05-07 19:40 | 50.61881 | -1.10191 | 16755 ft | 393 kts | 40° |
| 2026-05-07 19:40 | 50.63965 | -1.07438 | 16241 ft | 390 kts | 40° |
| 2026-05-07 19:40 | 50.65981 | -1.04610 | 15748 ft | 387 kts | 46° |
| 2026-05-07 19:41 | 50.67722 | -1.01394 | 15241 ft | 385 kts | 51° |
| 2026-05-07 19:41 | 50.69407 | -0.98136 | 14728 ft | 383 kts | 51° |
| 2026-05-07 19:41 | 50.71087 | -0.94890 | 14201 ft | 381 kts | 51° |
| 2026-05-07 19:41 | 50.72737 | -0.91706 | 13805 ft | 376 kts | 51° |
| 2026-05-07 19:42 | 50.74362 | -0.88573 | 13666 ft | 362 kts | 51° |
| 2026-05-07 19:42 | 50.75930 | -0.85548 | 13529 ft | 350 kts | 51° |
| 2026-05-07 19:42 | 50.77444 | -0.82621 | 13386 ft | 338 kts | 51° |
| 2026-05-07 19:42 | 50.78905 | -0.79788 | 13256 ft | 327 kts | 51° |
| 2026-05-07 19:43 | 50.80265 | -0.76975 | 13100 ft | 318 kts | 59° |
| 2026-05-07 19:43 | 50.81203 | -0.73863 | 13063 ft | 313 kts | 72° |
| 2026-05-07 19:43 | 50.81714 | -0.70528 | 12772 ft | 312 kts | 81° |
| 2026-05-07 19:43 | 50.82109 | -0.67143 | 12332 ft | 313 kts | 81° |
| 2026-05-07 19:44 | 50.82498 | -0.63762 | 11948 ft | 312 kts | 81° |
| 2026-05-07 19:44 | 50.82880 | -0.60436 | 11575 ft | 311 kts | 80° |
| 2026-05-07 19:44 | 50.83267 | -0.57072 | 11199 ft | 310 kts | 80° |
| 2026-05-07 19:44 | 50.83653 | -0.53727 | 10828 ft | 309 kts | 80° |
| 2026-05-07 19:45 | 50.84033 | -0.50393 | 10461 ft | 307 kts | 80° |
| 2026-05-07 19:45 | 50.84413 | -0.47073 | 10099 ft | 306 kts | 79° |
| 2026-05-07 19:45 | 50.84790 | -0.43763 | 9709 ft | 304 kts | 79° |
| 2026-05-07 19:45 | 50.85165 | -0.40501 | 9076 ft | 299 kts | 79° |
| 2026-05-07 19:46 | 50.85536 | -0.37271 | 8658 ft | 296 kts | 79° |
| 2026-05-07 19:46 | 50.85897 | -0.34122 | 8240 ft | 295 kts | 79° |
| 2026-05-07 19:46 | 50.86258 | -0.30966 | 8044 ft | 288 kts | 79° |
| 2026-05-07 19:46 | 50.86614 | -0.27862 | 8054 ft | 287 kts | 79° |
| 2026-05-07 19:47 | 50.86965 | -0.24758 | 8057 ft | 287 kts | 80° |
| 2026-05-07 19:47 | 50.87312 | -0.21652 | 8057 ft | 286 kts | 79° |
| 2026-05-07 19:47 | 50.87658 | -0.18547 | 8057 ft | 286 kts | 80° |
| 2026-05-07 19:47 | 50.87996 | -0.15508 | 8054 ft | 272 kts | 80° |
| 2026-05-07 19:48 | 50.88315 | -0.12651 | 8054 ft | 256 kts | 80° |
| 2026-05-07 19:48 | 50.88626 | -0.09895 | 8023 ft | 254 kts | 79° |
| 2026-05-07 19:48 | 50.89261 | -0.07304 | 7528 ft | 257 kts | 52° |
| 2026-05-07 19:48 | 50.90661 | -0.05512 | 7136 ft | 268 kts | 21° |
| 2026-05-07 19:49 | 50.92472 | -0.05034 | 7049 ft | 271 kts | 353° |
| 2026-05-07 19:49 | 50.94238 | -0.05993 | 7059 ft | 271 kts | 324° |
| 2026-05-07 19:49 | 50.95505 | -0.08150 | 7062 ft | 269 kts | 297° |
| 2026-05-07 19:49 | 50.96100 | -0.10955 | 7060 ft | 270 kts | 283° |
| 2026-05-07 19:50 | 50.96501 | -0.13866 | 7061 ft | 270 kts | 281° |
| 2026-05-07 19:50 | 50.96880 | -0.16794 | 7061 ft | 271 kts | 281° |
| 2026-05-07 19:50 | 50.97254 | -0.19729 | 7060 ft | 271 kts | 281° |
| 2026-05-07 19:50 | 50.97627 | -0.22657 | 7060 ft | 271 kts | 281° |
| 2026-05-07 19:51 | 50.97998 | -0.25587 | 7061 ft | 271 kts | 281° |
| 2026-05-07 19:51 | 50.98363 | -0.28475 | 6908 ft | 269 kts | 281° |
| 2026-05-07 19:51 | 50.98729 | -0.31394 | 6469 ft | 270 kts | 281° |
| 2026-05-07 19:51 | 50.99090 | -0.34312 | 6011 ft | 270 kts | 281° |
| 2026-05-07 19:52 | 50.99449 | -0.37242 | 5602 ft | 271 kts | 281° |
| 2026-05-07 19:52 | 50.99809 | -0.40169 | 5218 ft | 269 kts | 281° |
| 2026-05-07 19:52 | 51.00165 | -0.43051 | 4825 ft | 260 kts | 281° |
| 2026-05-07 19:52 | 51.00506 | -0.45807 | 4438 ft | 249 kts | 281° |
| 2026-05-07 19:53 | 51.00833 | -0.48446 | 4052 ft | 239 kts | 281° |
| 2026-05-07 19:53 | 51.01375 | -0.50864 | 3669 ft | 231 kts | 307° |
| 2026-05-07 19:53 | 51.02573 | -0.52458 | 3302 ft | 230 kts | 335° |
| 2026-05-07 19:53 | 51.04046 | -0.53467 | 3005 ft | 228 kts | 340° |
| 2026-05-07 19:54 | 51.05481 | -0.54337 | 2992 ft | 213 kts | 341° |
| 2026-05-07 19:54 | 51.06826 | -0.55102 | 2990 ft | 199 kts | 350° |
| 2026-05-07 19:54 | 51.08139 | -0.54913 | 2995 ft | 188 kts | 30° |
| 2026-05-07 19:54 | 51.09148 | -0.53652 | 3012 ft | 185 kts | 48° |
| 2026-05-07 19:55 | 51.09992 | -0.52128 | 3002 ft | 183 kts | 60° |
| 2026-05-07 19:55 | 51.10450 | -0.50274 | 3007 ft | 180 kts | 79° |
| 2026-05-07 19:55 | 51.10723 | -0.48321 | 3005 ft | 180 kts | 78° |
| 2026-05-07 19:55 | 51.10999 | -0.46371 | 3014 ft | 187 kts | 78° |
| 2026-05-07 19:56 | 51.11282 | -0.44358 | 3014 ft | 186 kts | 78° |
| 2026-05-07 19:56 | 51.11548 | -0.42475 | 2958 ft | 165 kts | 78° |
| 2026-05-07 19:56 | 51.11791 | -0.40740 | 2780 ft | 160 kts | 79° |
| 2026-05-07 19:56 | 51.12027 | -0.39055 | 2567 ft | 151 kts | 79° |
| 2026-05-07 19:57 | 51.12247 | -0.37487 | 2398 ft | 142 kts | 79° |
| 2026-05-07 19:57 | 51.12459 | -0.35970 | 2207 ft | 139 kts | 79° |
| 2026-05-07 19:57 | 51.12669 | -0.34469 | 2019 ft | 139 kts | 79° |
| 2026-05-07 19:57 | 51.12879 | -0.32968 | 1837 ft | 139 kts | 79° |
| 2026-05-07 19:58 | 51.13088 | -0.31465 | 1640 ft | 139 kts | 79° |
| 2026-05-07 19:58 | 51.13296 | -0.29970 | 1451 ft | 139 kts | 79° |
| 2026-05-07 19:58 | 51.13503 | -0.28492 | 1260 ft | 139 kts | 78° |
| 2026-05-07 19:58 | 51.13717 | -0.26996 | 1075 ft | 138 kts | 78° |
| 2026-05-07 19:59 | 51.13923 | -0.25511 | 856 ft | 137 kts | 79° |
| 2026-05-07 19:59 | 51.14123 | -0.24032 | 675 ft | 136 kts | 77° |
| 2026-05-07 19:59 | 51.14332 | -0.22557 | 477 ft | 140 kts | 77° |
| 2026-05-07 19:59 | 51.14535 | -0.21071 | 278 ft | 134 kts | 78° |
| 2026-05-07 20:00 | 51.14723 | -0.19724 | 212 ft | 111 kts | 77° |
| 2026-05-07 20:00 | 51.14851 | -0.18783 | 206 ft | 62 kts | 77° |
| 2026-05-07 20:00 | 51.14925 | -0.18254 | 208 ft | 45 kts | 77° |
| 2026-05-07 20:00 | 51.15007 | -0.17899 | 213 ft | 29 kts | 60° |
| 2026-05-07 20:01 | 51.15089 | -0.17765 | 206 ft | 11 kts | 17° |
| 2026-05-07 20:01 | 51.15108 | -0.17762 | 209 ft | 1 kts | 2° |
| 2026-05-07 20:01 | 51.15115 | -0.17762 | 208 ft | 1 kts | 0° |
| 2026-05-07 20:01 | 51.15120 | -0.17762 | 206 ft | 0 kts | 358° |
| 2026-05-07 20:03 | 51.15124 | -0.17763 | 206 ft | 2 kts | 356° |
| 2026-05-07 20:03 | 51.15137 | -0.17765 | 205 ft | 2 kts | 354° |
| 2026-05-07 20:03 | 51.15209 | -0.17781 | 208 ft | 10 kts | 352° |
| 2026-05-07 20:04 | 51.15260 | -0.17736 | 209 ft | 9 kts | 63° |
| 2026-05-07 20:04 | 51.15283 | -0.17586 | 205 ft | 16 kts | 78° |
| 2026-05-07 20:04 | 51.15309 | -0.17404 | 208 ft | 16 kts | 63° |
| 2026-05-07 20:04 | 51.15412 | -0.17395 | 205 ft | 16 kts | 346° |
| 2026-05-07 20:05 | 51.15529 | -0.17437 | 207 ft | 18 kts | 348° |
| 2026-05-07 20:05 | 51.15656 | -0.17480 | 211 ft | 14 kts | 348° |
| 2026-05-07 20:05 | 51.15662 | -0.17482 | 208 ft | 0 kts | 348° |
| 2026-05-07 20:05 | 51.15678 | -0.17487 | 207 ft | 4 kts | 348° |
| 2026-05-07 20:06 | 51.15709 | -0.17498 | 212 ft | 5 kts | 347° |
| 2026-05-07 20:06 | 51.15740 | -0.17516 | 205 ft | 4 kts | 328° |
| 2026-05-07 20:06 | 51.15747 | -0.17617 | 213 ft | 14 kts | 258° |
| 2026-05-07 20:06 | 51.15710 | -0.17628 | 207 ft | 4 kts | 166° |
| 2026-05-07 20:07 | 51.15685 | -0.17620 | 205 ft | 3 kts | 168° |
| 2026-05-07 20:07 | 51.15668 | -0.17614 | 210 ft | 2 kts | 167° |
| 2026-05-07 20:07 | 51.15656 | -0.17610 | 214 ft | 1 kts | 168° |
| 2026-05-07 20:07 | 51.15653 | -0.17609 | 213 ft | 0 kts | 168° |